createdAt,value
2023-03-20T00:02:09.184Z,7.00
2023-03-20T00:05:22.011Z,7.03
2023-03-20T00:08:29.717Z,6.99
2023-03-20T00:11:48.418Z,6.98
2023-03-20T00:14:54.014Z,6.96
2023-03-20T00:18:01.271Z,6.96
2023-03-20T00:21:06.947Z,6.93
2023-03-20T00:24:13.178Z,6.93
2023-03-20T00:27:21.596Z,6.91
2023-03-20T00:30:32.852Z,6.86
2023-03-20T00:33:38.417Z,6.81
2023-03-20T00:36:44.994Z,6.79
2023-03-20T00:39:50.597Z,6.74
2023-03-20T00:43:05.051Z,6.73
2023-03-20T00:46:17.487Z,6.69
2023-03-20T00:49:29.943Z,6.63
2023-03-20T00:52:36.231Z,6.65
2023-03-20T00:55:44.181Z,6.44
2023-03-20T00:58:54.250Z,6.68
2023-03-20T01:02:00.799Z,6.67
2023-03-20T01:05:07.237Z,6.65
2023-03-20T01:08:18.756Z,6.64
2023-03-20T01:11:28.014Z,6.65
2023-03-20T01:14:37.958Z,6.66
2023-03-20T01:17:43.300Z,6.66
2023-03-20T01:20:53.082Z,6.69
2023-03-20T01:23:58.441Z,6.73
2023-03-20T01:27:06.179Z,6.75
2023-03-20T01:30:28.564Z,6.77
2023-03-20T01:33:34.813Z,6.82
2023-03-20T01:36:42.146Z,6.85
2023-03-20T01:39:48.762Z,6.90
2023-03-20T01:42:55.057Z,6.90
2023-03-20T01:46:21.573Z,6.91
2023-03-20T01:50:22.554Z,6.94
2023-03-20T01:53:33.697Z,6.97
2023-03-20T01:56:49.841Z,6.98
2023-03-20T02:00:06.493Z,6.93
2023-03-20T02:03:27.559Z,7.00
2023-03-20T02:06:48.674Z,7.07
2023-03-20T02:10:05.458Z,7.09
2023-03-20T02:13:21.601Z,7.11
2023-03-20T02:16:28.169Z,7.12
2023-03-20T02:20:14.147Z,7.11
2023-03-20T02:24:06.345Z,7.13
2023-03-20T02:27:31.367Z,7.14
2023-03-20T02:31:09.208Z,7.11
2023-03-20T02:35:26.101Z,7.11
2023-03-20T02:39:02.697Z,7.10
2023-03-20T02:42:23.156Z,6.99
2023-03-20T02:45:37.895Z,7.05
2023-03-20T02:49:04.447Z,7.03
2023-03-20T02:52:25.357Z,6.99
2023-03-20T02:55:47.226Z,6.92
2023-03-20T02:59:05.637Z,6.93
2023-03-20T03:02:19.881Z,6.97
2023-03-20T03:05:37.972Z,6.99
2023-03-20T03:08:54.848Z,7.04
2023-03-20T03:12:10.940Z,7.05
2023-03-20T03:15:26.173Z,7.09
2023-03-20T03:18:36.906Z,7.02
2023-03-20T03:21:44.654Z,6.77
2023-03-20T03:24:53.922Z,7.02
2023-03-20T03:28:12.078Z,7.00
2023-03-20T03:31:22.083Z,6.93
2023-03-20T03:34:28.743Z,6.83
2023-03-20T03:37:54.188Z,6.85
2023-03-20T03:41:21.691Z,6.84
2023-03-20T03:44:40.003Z,6.88
2023-03-20T03:47:55.308Z,6.93
2023-03-20T03:51:11.856Z,6.97
2023-03-20T03:54:37.898Z,6.97
2023-03-20T03:58:12.117Z,6.98
2023-03-20T04:01:27.590Z,6.94
2023-03-20T04:04:38.672Z,6.92
2023-03-20T04:07:48.420Z,6.91
2023-03-20T04:10:55.921Z,6.94
2023-03-20T04:14:02.337Z,6.92
2023-03-20T04:17:12.164Z,6.86
2023-03-20T04:20:19.211Z,6.87
2023-03-20T04:23:25.958Z,6.87
2023-03-20T04:26:32.599Z,6.82
2023-03-20T04:29:39.299Z,6.77
2023-03-20T04:33:07.495Z,6.68
2023-03-20T04:36:29.596Z,6.63
2023-03-20T04:39:36.953Z,6.59
2023-03-20T04:42:42.448Z,6.62
2023-03-20T04:45:49.021Z,6.59
2023-03-20T04:48:57.274Z,6.57
2023-03-20T04:52:07.936Z,6.64
2023-03-20T04:55:20.008Z,6.65
2023-03-20T04:58:26.276Z,6.66
2023-03-20T05:01:31.966Z,6.65
2023-03-20T05:04:41.874Z,6.61
2023-03-20T05:07:48.074Z,6.56
2023-03-20T05:11:02.267Z,6.47
2023-03-20T05:14:31.702Z,6.45
2023-03-20T05:18:34.073Z,6.39
2023-03-20T05:21:52.787Z,6.34
2023-03-20T05:25:09.765Z,6.30
2023-03-20T05:28:34.261Z,6.28
2023-03-20T05:32:07.749Z,6.03
2023-03-20T05:36:00.400Z,6.31
2023-03-20T05:39:29.161Z,6.30
2023-03-20T05:43:29.355Z,6.32
2023-03-20T05:46:49.611Z,6.33
2023-03-20T05:50:02.017Z,6.33
2023-03-20T05:53:16.773Z,6.40
2023-03-20T05:57:06.155Z,6.45
2023-03-20T06:00:53.562Z,6.62
2023-03-20T06:04:21.941Z,6.72
2023-03-20T06:08:19.932Z,6.87
2023-03-20T06:11:25.501Z,6.98
2023-03-20T06:14:34.635Z,7.08
2023-03-20T06:17:44.768Z,7.15
2023-03-20T06:20:56.768Z,7.22
2023-03-20T06:24:03.767Z,7.31
2023-03-20T06:27:10.123Z,7.34
2023-03-20T06:30:21.217Z,7.26
2023-03-20T06:33:29.144Z,7.25
2023-03-20T06:36:38.219Z,6.94
2023-03-20T06:39:50.560Z,7.29
2023-03-20T06:42:57.963Z,7.36
2023-03-20T06:46:15.898Z,7.47
2023-03-20T06:49:21.626Z,7.47
2023-03-20T06:52:28.226Z,7.48
2023-03-20T06:55:56.410Z,7.41
2023-03-20T06:59:02.801Z,7.58
2023-03-20T07:02:13.064Z,7.60
2023-03-20T07:05:20.771Z,7.55
2023-03-20T07:08:26.405Z,7.68
2023-03-20T07:11:32.893Z,7.70
2023-03-20T07:14:39.320Z,7.56
2023-03-20T07:17:53.392Z,7.60
2023-03-20T07:21:06.534Z,7.64
2023-03-20T07:24:13.644Z,7.61
2023-03-20T07:27:28.045Z,7.58
2023-03-20T07:30:35.815Z,7.47
2023-03-20T07:33:44.187Z,7.02
2023-03-20T07:36:50.550Z,7.29
2023-03-20T07:39:59.126Z,7.35
2023-03-20T07:43:09.566Z,7.43
2023-03-20T07:46:33.412Z,7.44
2023-03-20T07:49:43.508Z,7.41
2023-03-20T07:52:54.294Z,7.35
2023-03-20T07:56:00.909Z,7.34
2023-03-20T07:59:06.888Z,7.42
2023-03-20T08:02:18.988Z,7.44
2023-03-20T08:05:27.567Z,7.52
2023-03-20T08:08:34.212Z,7.63
2023-03-20T08:11:39.683Z,7.75
2023-03-20T08:14:46.369Z,7.80
2023-03-20T08:17:52.018Z,7.85
2023-03-20T08:21:01.134Z,7.96
2023-03-20T08:24:06.893Z,8.02
2023-03-20T08:27:13.284Z,7.98
2023-03-20T08:30:19.442Z,8.21
2023-03-20T08:33:25.968Z,8.38
2023-03-20T08:36:34.409Z,8.53
2023-03-20T08:39:40.680Z,8.71
2023-03-20T08:42:46.513Z,8.83
2023-03-20T08:45:53.057Z,8.93
2023-03-20T08:48:59.249Z,9.02
2023-03-20T08:52:08.878Z,9.09
2023-03-20T08:55:15.999Z,9.20
2023-03-20T08:58:24.634Z,9.32
2023-03-20T09:01:45.988Z,9.48
2023-03-20T09:04:55.066Z,9.73
2023-03-20T09:08:04.254Z,9.82
2023-03-20T09:11:11.077Z,9.81
2023-03-20T09:14:16.911Z,9.75
2023-03-20T09:17:23.252Z,9.73
2023-03-20T09:20:29.221Z,9.76
2023-03-20T09:23:38.395Z,9.77
2023-03-20T09:26:43.972Z,9.86
2023-03-20T09:29:50.350Z,9.95
2023-03-20T09:32:56.105Z,10.08
2023-03-20T09:36:02.412Z,10.15
2023-03-20T09:39:10.652Z,10.21
2023-03-20T09:42:35.390Z,10.27
2023-03-20T09:46:00.164Z,10.38
2023-03-20T09:49:25.700Z,10.43
2023-03-20T09:52:36.408Z,10.68
2023-03-20T09:55:47.862Z,10.66
2023-03-20T09:58:59.240Z,10.47
2023-03-20T10:02:20.438Z,10.31
2023-03-20T10:05:30.866Z,10.03
2023-03-20T10:08:40.232Z,9.93
2023-03-20T10:12:30.982Z,9.88
2023-03-20T10:15:52.364Z,9.95
2023-03-20T10:19:13.485Z,10.10
2023-03-20T10:22:29.402Z,10.25
2023-03-20T10:25:41.133Z,10.37
2023-03-20T10:29:01.501Z,10.34
2023-03-20T10:32:20.209Z,10.17
2023-03-20T10:35:44.402Z,10.12
2023-03-20T10:39:04.827Z,10.12
2023-03-20T10:42:23.059Z,10.15
2023-03-20T10:45:51.959Z,10.34
2023-03-20T10:49:06.727Z,10.46
2023-03-20T10:52:21.069Z,10.66
2023-03-20T10:55:38.225Z,10.69
2023-03-20T10:58:52.988Z,10.66
2023-03-20T11:02:05.395Z,10.88
2023-03-20T11:05:27.936Z,10.91
2023-03-20T11:08:51.197Z,10.97
2023-03-20T11:12:05.426Z,11.02
2023-03-20T11:15:35.165Z,10.94
2023-03-20T11:18:53.321Z,11.06
2023-03-20T11:22:26.386Z,11.03
2023-03-20T11:25:51.100Z,11.19
2023-03-20T11:29:02.281Z,11.34
2023-03-20T11:32:30.299Z,11.50
2023-03-20T11:35:39.616Z,11.62
2023-03-20T11:38:49.253Z,11.84
2023-03-20T11:41:59.299Z,11.94
2023-03-20T11:45:09.388Z,11.97
2023-03-20T11:48:23.876Z,12.08
2023-03-20T11:51:32.704Z,12.07
2023-03-20T11:54:49.557Z,12.08
2023-03-20T11:58:01.295Z,12.09
2023-03-20T12:01:15.515Z,12.14
2023-03-20T12:04:24.185Z,12.19
2023-03-20T12:07:41.267Z,12.26
2023-03-20T12:10:57.258Z,12.33
2023-03-20T12:14:09.795Z,12.36
2023-03-20T12:17:38.459Z,12.23
2023-03-20T12:21:01.098Z,11.95
2023-03-20T12:24:22.718Z,11.70
2023-03-20T12:27:36.946Z,11.51
2023-03-20T12:31:01.648Z,11.57
2023-03-20T12:34:19.335Z,11.56
2023-03-20T12:37:26.829Z,11.45
2023-03-20T12:40:58.122Z,11.35
2023-03-20T12:44:32.470Z,11.27
2023-03-20T12:48:25.714Z,11.21
2023-03-20T12:51:55.616Z,11.03
2023-03-20T12:55:29.850Z,11.08
2023-03-20T12:58:49.417Z,11.14
2023-03-20T13:02:06.892Z,11.22
2023-03-20T13:05:39.030Z,11.17
2023-03-20T13:09:53.126Z,10.98
2023-03-20T13:13:23.446Z,11.07
2023-03-20T13:16:52.563Z,11.29
2023-03-20T13:20:27.291Z,11.48
2023-03-20T13:23:49.354Z,11.51
2023-03-20T13:27:11.033Z,11.58
2023-03-20T13:30:36.437Z,11.60
2023-03-20T13:33:58.493Z,11.66
2023-03-20T13:37:24.404Z,11.53
2023-03-20T13:40:37.183Z,11.42
2023-03-20T13:43:54.597Z,11.28
2023-03-20T13:47:06.772Z,11.15
2023-03-20T13:50:43.938Z,11.11
2023-03-20T13:54:11.142Z,11.07
2023-03-20T13:57:41.505Z,11.06
2023-03-20T14:01:00.574Z,10.59
2023-03-20T14:04:17.072Z,11.18
2023-03-20T14:07:39.077Z,11.18
2023-03-20T14:10:45.435Z,11.11
2023-03-20T14:13:57.855Z,10.91
2023-03-20T14:17:20.825Z,11.06
2023-03-20T14:20:36.554Z,11.10
2023-03-20T14:23:52.046Z,11.17
2023-03-20T14:27:04.216Z,11.19
2023-03-20T14:30:47.232Z,11.19
2023-03-20T14:34:17.763Z,11.17
2023-03-20T14:37:38.515Z,11.16
2023-03-20T14:41:00.288Z,11.15
2023-03-20T14:44:29.680Z,11.11
2023-03-20T14:47:52.267Z,11.09
2023-03-20T14:51:21.703Z,10.91
2023-03-20T14:54:31.872Z,10.74
2023-03-20T14:57:55.477Z,10.54
2023-03-20T15:01:08.843Z,10.39
2023-03-20T15:04:31.536Z,10.31
2023-03-20T15:07:43.046Z,10.13
2023-03-20T15:10:57.045Z,10.06
2023-03-20T15:14:11.773Z,10.06
2023-03-20T15:17:25.487Z,10.11
2023-03-20T15:20:32.055Z,10.15
2023-03-20T15:23:38.292Z,10.19
2023-03-20T15:26:43.849Z,10.18
2023-03-20T15:29:57.812Z,10.20
2023-03-20T15:33:04.165Z,10.18
2023-03-20T15:36:14.545Z,10.18
2023-03-20T15:39:25.133Z,10.22
2023-03-20T15:42:33.710Z,10.22
2023-03-20T15:45:45.605Z,10.24
2023-03-20T15:48:52.621Z,10.23
2023-03-20T15:52:05.374Z,10.21
2023-03-20T15:55:21.473Z,10.07
2023-03-20T15:58:32.185Z,10.27
2023-03-20T16:01:42.146Z,10.40
2023-03-20T16:04:54.816Z,10.47
2023-03-20T16:08:16.305Z,10.54
2023-03-20T16:11:21.963Z,10.58
2023-03-20T16:14:32.842Z,10.64
2023-03-20T16:17:41.415Z,10.68
2023-03-20T16:20:58.001Z,10.41
2023-03-20T16:24:10.165Z,10.71
2023-03-20T16:27:27.363Z,10.70
2023-03-20T16:30:36.390Z,10.50
2023-03-20T16:33:48.011Z,10.60
2023-03-20T16:36:59.492Z,10.57
2023-03-20T16:40:18.043Z,10.56
2023-03-20T16:43:30.830Z,10.47
2023-03-20T16:46:37.455Z,10.37
2023-03-20T16:50:18.452Z,10.33
2023-03-20T16:53:24.990Z,10.22
2023-03-20T16:56:38.384Z,10.14
2023-03-20T16:59:45.250Z,10.05
2023-03-20T17:03:01.123Z,9.97
2023-03-20T17:06:35.912Z,9.93
2023-03-20T17:10:02.864Z,9.85
2023-03-20T17:13:09.505Z,9.79
2023-03-20T17:16:22.612Z,9.72
2023-03-20T17:19:29.301Z,9.66
2023-03-20T17:22:39.061Z,9.59
2023-03-20T17:25:46.012Z,9.50
2023-03-20T17:28:51.729Z,9.45
2023-03-20T17:31:58.074Z,9.41
2023-03-20T17:35:03.674Z,9.38
2023-03-20T17:38:21.553Z,9.35
2023-03-20T17:41:29.018Z,9.33
2023-03-20T17:44:35.503Z,9.28
2023-03-20T17:47:41.461Z,9.26
2023-03-20T17:50:50.754Z,9.26
2023-03-20T17:53:59.605Z,9.22
2023-03-20T17:57:05.955Z,9.27
2023-03-20T18:00:20.580Z,9.28
2023-03-20T18:03:27.279Z,9.31
2023-03-20T18:06:37.158Z,9.35
2023-03-20T18:09:47.906Z,9.38
2023-03-20T18:12:53.437Z,9.38
2023-03-20T18:16:01.918Z,9.37
2023-03-20T18:19:07.720Z,9.39
2023-03-20T18:22:14.532Z,9.37
2023-03-20T18:25:23.570Z,9.36
2023-03-20T18:28:30.000Z,9.36
2023-03-20T18:31:35.711Z,9.30
2023-03-20T18:34:42.211Z,9.20
2023-03-20T18:37:48.004Z,9.03
2023-03-20T18:40:57.169Z,9.02
2023-03-20T18:44:02.881Z,8.91
2023-03-20T18:47:10.095Z,8.78
2023-03-20T18:50:29.896Z,8.72
2023-03-20T18:53:36.312Z,8.63
2023-03-20T18:56:44.901Z,8.55
2023-03-20T18:59:51.316Z,8.52
2023-03-20T19:02:59.154Z,8.50
2023-03-20T19:06:08.039Z,8.51
2023-03-20T19:09:15.977Z,8.42
2023-03-20T19:12:25.156Z,8.38
2023-03-20T19:15:35.755Z,8.37
2023-03-20T19:18:42.245Z,8.39
2023-03-20T19:21:48.062Z,8.43
2023-03-20T19:24:54.578Z,8.44
2023-03-20T19:28:03.648Z,8.43
2023-03-20T19:31:10.823Z,8.46
2023-03-20T19:34:51.902Z,8.48
2023-03-20T19:37:42.855Z,8.50
2023-03-20T19:40:53.312Z,8.48
2023-03-20T19:44:03.248Z,8.47
2023-03-20T19:47:08.972Z,8.49
2023-03-20T19:50:31.972Z,8.52
2023-03-20T19:53:37.642Z,8.49
2023-03-20T19:56:45.709Z,8.49
2023-03-20T19:59:54.290Z,8.44
2023-03-20T20:03:01.616Z,8.38
2023-03-20T20:06:08.181Z,8.33
2023-03-20T20:09:14.812Z,8.29
2023-03-20T20:12:20.527Z,8.31
2023-03-20T20:15:32.318Z,8.25
2023-03-20T20:18:38.343Z,8.26
2023-03-20T20:22:25.232Z,8.28
2023-03-20T20:25:12.738Z,8.26
2023-03-20T20:28:22.210Z,8.21
2023-03-20T20:31:34.919Z,8.18
2023-03-20T20:38:37.136Z,8.13
2023-03-20T20:41:34.913Z,8.05
2023-03-20T20:44:40.508Z,8.04
2023-03-20T20:47:52.046Z,8.02
2023-03-20T20:51:03.713Z,7.97
2023-03-20T20:54:10.860Z,7.87
2023-03-20T20:57:16.422Z,7.87
2023-03-20T21:00:37.222Z,7.89
2023-03-20T21:03:54.430Z,7.90
2023-03-20T21:07:10.819Z,7.87
2023-03-20T21:10:21.428Z,7.83
2023-03-20T21:13:28.168Z,7.64
2023-03-20T21:16:33.804Z,7.46
2023-03-20T21:19:45.645Z,7.44
2023-03-20T21:22:51.001Z,7.28
2023-03-20T21:25:57.497Z,7.24
2023-03-20T21:29:02.895Z,7.14
2023-03-20T21:32:11.413Z,7.07
2023-03-20T21:35:19.845Z,6.74
2023-03-20T21:41:52.189Z,6.77
2023-03-20T21:45:56.035Z,6.70
2023-03-20T21:48:58.817Z,6.75
2023-03-20T21:59:24.118Z,6.86
2023-03-20T22:02:25.292Z,6.89
2023-03-20T22:13:16.252Z,6.70
2023-03-20T22:16:41.106Z,6.88
2023-03-20T22:30:26.027Z,6.85
2023-03-20T22:34:05.192Z,6.94
2023-03-20T22:37:24.618Z,6.95
2023-03-20T22:44:24.750Z,6.93
2023-03-20T22:46:55.902Z,6.93
2023-03-20T22:50:01.382Z,6.91
2023-03-20T22:53:07.665Z,6.86
2023-03-20T22:56:15.221Z,6.66
2023-03-20T22:59:24.218Z,6.95
2023-03-20T23:02:29.589Z,7.01
2023-03-20T23:05:36.679Z,7.05
2023-03-20T23:08:50.705Z,7.10
2023-03-20T23:12:00.202Z,7.11
2023-03-20T23:15:10.363Z,6.52
2023-03-20T23:18:17.256Z,7.07
2023-03-20T23:21:22.690Z,6.99
2023-03-20T23:24:29.345Z,6.86
2023-03-20T23:27:35.040Z,6.83
2023-03-20T23:30:49.821Z,6.84
2023-03-20T23:34:01.229Z,6.89
2023-03-20T23:37:07.636Z,6.93
2023-03-20T23:40:14.862Z,7.02
2023-03-20T23:43:21.794Z,7.07
2023-03-20T23:46:30.062Z,7.15
2023-03-20T23:49:36.357Z,7.15
2023-03-20T23:56:09.594Z,7.15
2023-03-20T23:59:21.607Z,7.13
